Lanesboro, Massachusetts
Current Conditions -  °F | °C
As of 9:26 AM on Tuesday 21 Oct 2014 (Local Time) from KPSF Reporting Station
Light Rain Light Rain  
Wind Chill: 43°   Ceiling: 5000
Heat Index: 45°   Visibility: 4mi
Dew Point: 44°   Wind: 5mph
Humidity: 97%   Direction: 50°NE
Pressure: 29.92"   Gusts: NA
Location:  42.51°N, 73.24°W
Report Text: KPSF 211326Z AUTO 05004KT 4SM -RA BR OVC050 07/07 A2992 RMK AO2 P0001 T00720067
Loading
Personal Weather Stations






























Interactive Weather Map
Tropical Storm Tracking
New forecast layout! Learn more

10-Day Weather Forecast

Advertisements
Track Severe Weather on mobile